createdAt,value
2023-04-22T00:00:57.250Z,10.70
2023-04-22T00:03:25.488Z,10.60
2023-04-22T00:05:54.616Z,10.70
2023-04-22T00:08:22.868Z,10.70
2023-04-22T00:10:52.494Z,10.60
2023-04-22T00:13:20.601Z,10.60
2023-04-22T00:15:48.843Z,10.60
2023-04-22T00:18:17.002Z,10.60
2023-04-22T00:20:45.257Z,10.60
2023-04-22T00:23:14.277Z,10.60
2023-04-22T00:25:42.422Z,10.50
2023-04-22T00:28:11.922Z,10.40
2023-04-22T00:30:41.262Z,10.40
2023-04-22T00:33:09.431Z,10.40
2023-04-22T00:35:37.609Z,10.40
2023-04-22T00:38:05.777Z,10.40
2023-04-22T00:40:33.940Z,10.40
2023-04-22T00:43:03.376Z,10.40
2023-04-22T00:45:33.055Z,10.40
2023-04-22T00:48:01.920Z,10.40
2023-04-22T00:50:30.613Z,10.40
2023-04-22T00:52:58.773Z,10.40
2023-04-22T00:55:28.543Z,10.40
2023-04-22T00:58:01.900Z,10.50
2023-04-22T01:00:30.348Z,10.40
2023-04-22T01:03:00.236Z,10.50
2023-04-22T01:05:31.896Z,10.50
2023-04-22T01:08:00.469Z,10.50
2023-04-22T01:10:29.051Z,10.50
2023-04-22T01:12:57.130Z,10.50
2023-04-22T01:15:25.384Z,10.40
2023-04-22T01:17:55.715Z,10.40
2023-04-22T01:20:29.510Z,10.40
2023-04-22T01:22:58.752Z,10.40
2023-04-22T01:25:28.552Z,10.40
2023-04-22T01:27:57.695Z,10.30
2023-04-22T01:30:25.912Z,10.40
2023-04-22T01:32:54.464Z,10.40
2023-04-22T01:35:22.627Z,10.50
2023-04-22T01:37:53.310Z,10.40
2023-04-22T01:40:23.840Z,10.50
2023-04-22T01:42:53.464Z,10.50
2023-04-22T01:45:21.605Z,10.50
2023-04-22T01:47:49.789Z,10.50
2023-04-22T01:50:18.166Z,10.60
2023-04-22T01:52:46.351Z,10.60
2023-04-22T01:55:14.739Z,10.50
2023-04-22T01:57:43.278Z,10.50
2023-04-22T02:00:14.526Z,10.40
2023-04-22T02:02:42.848Z,10.40
2023-04-22T02:05:11.664Z,10.40
2023-04-22T02:07:39.875Z,10.40
2023-04-22T02:10:09.728Z,10.40
2023-04-22T02:12:37.868Z,10.40
2023-04-22T02:15:07.664Z,10.40
2023-04-22T02:17:37.748Z,10.40
2023-04-22T02:20:07.766Z,10.40
2023-04-22T02:22:36.700Z,10.40
2023-04-22T02:25:06.640Z,10.30
2023-04-22T02:27:34.896Z,10.30
2023-04-22T02:30:03.895Z,10.20
2023-04-22T02:32:32.207Z,10.20
2023-04-22T02:35:02.077Z,10.10
2023-04-22T02:37:30.269Z,10.00
2023-04-22T02:39:58.385Z,10.00
2023-04-22T02:42:26.537Z,10.00
2023-04-22T02:44:54.658Z,9.90
2023-04-22T02:47:23.421Z,9.90
2023-04-22T02:49:51.751Z,9.90
2023-04-22T02:52:21.268Z,9.90
2023-04-22T02:54:49.423Z,9.80
2023-04-22T02:57:17.522Z,9.90
2023-04-22T02:59:46.529Z,9.90
2023-04-22T03:02:14.713Z,9.90
2023-04-22T03:04:42.903Z,9.80
2023-04-22T03:07:11.216Z,9.80
2023-04-22T03:09:41.101Z,9.80
2023-04-22T03:12:10.505Z,9.80
2023-04-22T03:14:41.326Z,9.90
2023-04-22T03:17:09.462Z,9.80
2023-04-22T03:19:37.810Z,9.80
2023-04-22T03:22:06.106Z,9.80
2023-04-22T03:24:34.255Z,9.70
2023-04-22T03:27:03.943Z,9.70
2023-04-22T03:29:32.080Z,9.60
2023-04-22T03:32:00.300Z,9.60
2023-04-22T03:34:28.477Z,9.60
2023-04-22T03:36:56.847Z,9.60
2023-04-22T03:39:24.965Z,9.50
2023-04-22T03:41:53.095Z,9.50
2023-04-22T03:44:22.531Z,9.60
2023-04-22T03:46:50.636Z,9.60
2023-04-22T03:49:19.110Z,9.50
2023-04-22T03:51:47.573Z,9.60
2023-04-22T03:54:15.666Z,9.60
2023-04-22T03:56:43.770Z,9.60
2023-04-22T03:59:11.870Z,9.60
2023-04-22T04:01:41.384Z,9.60
2023-04-22T04:04:09.745Z,9.60
2023-04-22T04:06:38.058Z,9.60
2023-04-22T04:09:06.648Z,9.60
2023-04-22T04:11:34.979Z,9.60
2023-04-22T04:14:03.455Z,9.70
2023-04-22T04:16:31.767Z,9.70
2023-04-22T04:19:01.386Z,9.70
2023-04-22T04:21:29.489Z,9.70
2023-04-22T04:23:57.565Z,9.60
2023-04-22T04:26:27.464Z,9.70
2023-04-22T04:28:56.504Z,9.70
2023-04-22T04:31:25.574Z,9.70
2023-04-22T04:33:53.956Z,9.70
2023-04-22T04:36:25.925Z,9.70
2023-04-22T04:38:55.781Z,9.80
2023-04-22T04:41:26.861Z,9.80
2023-04-22T04:43:55.031Z,9.80
2023-04-22T04:46:23.522Z,9.80
2023-04-22T04:48:53.915Z,9.90
2023-04-22T04:51:23.396Z,9.90
2023-04-22T04:53:51.550Z,10.00
2023-04-22T04:56:19.774Z,10.00
2023-04-22T04:58:47.905Z,10.20
2023-04-22T05:01:16.094Z,10.20
2023-04-22T05:03:44.391Z,10.40
2023-04-22T05:06:12.633Z,10.40
2023-04-22T05:08:42.110Z,10.50
2023-04-22T05:11:10.345Z,10.70
2023-04-22T05:13:38.643Z,10.80
2023-04-22T05:16:07.828Z,11.00
2023-04-22T05:18:36.239Z,11.20
2023-04-22T05:21:04.760Z,11.50
2023-04-22T05:23:32.852Z,11.70
2023-04-22T05:26:02.603Z,11.90
2023-04-22T05:28:30.730Z,12.10
2023-04-22T05:30:59.094Z,12.30
2023-04-22T05:33:27.209Z,12.60
2023-04-22T05:35:55.371Z,12.70
2023-04-22T05:38:25.918Z,12.70
2023-04-22T05:40:54.033Z,12.80
2023-04-22T05:43:23.494Z,13.00
2023-04-22T05:45:51.658Z,13.20
2023-04-22T05:48:19.810Z,13.30
2023-04-22T05:50:47.918Z,13.40
2023-04-22T05:53:16.122Z,13.50
2023-04-22T05:55:44.267Z,13.50
2023-04-22T05:58:12.402Z,13.70
2023-04-22T06:00:41.879Z,13.70
2023-04-22T06:03:10.220Z,13.80
2023-04-22T06:05:38.653Z,13.80
2023-04-22T06:08:06.917Z,13.80
2023-04-22T06:10:35.120Z,13.90
2023-04-22T06:13:03.540Z,13.90
2023-04-22T06:15:31.782Z,13.90
2023-04-22T06:18:01.352Z,13.90
2023-04-22T06:20:29.545Z,14.00
2023-04-22T06:22:57.681Z,14.10
2023-04-22T06:25:25.944Z,14.10
2023-04-22T06:27:54.208Z,14.10
2023-04-22T06:30:22.300Z,14.10
2023-04-22T06:32:50.446Z,14.20
2023-04-22T06:35:21.106Z,14.20
2023-04-22T06:37:49.541Z,14.20
2023-04-22T06:40:17.765Z,14.20
2023-04-22T06:42:45.925Z,14.30
2023-04-22T06:45:14.157Z,14.30
2023-04-22T06:47:42.446Z,14.30
2023-04-22T06:50:11.892Z,14.30
2023-04-22T06:52:41.449Z,14.40
2023-04-22T06:55:10.715Z,14.40
2023-04-22T06:57:38.931Z,14.40
2023-04-22T07:00:09.457Z,14.50
2023-04-22T07:02:37.748Z,14.50
2023-04-22T07:05:06.532Z,14.50
2023-04-22T07:07:34.711Z,14.50
2023-04-22T07:10:04.680Z,14.50
2023-04-22T07:12:32.829Z,14.60
2023-04-22T07:15:00.968Z,14.70
2023-04-22T07:17:29.072Z,14.80
2023-04-22T07:19:57.162Z,14.90
2023-04-22T07:22:25.305Z,14.90
2023-04-22T07:24:53.450Z,14.90
2023-04-22T07:27:23.000Z,15.00
2023-04-22T07:29:51.175Z,15.20
2023-04-22T07:32:19.316Z,15.40
2023-04-22T07:34:47.464Z,15.60
2023-04-22T07:37:15.610Z,15.60
2023-04-22T07:39:43.728Z,15.70
2023-04-22T07:42:12.734Z,15.70
2023-04-22T07:44:42.290Z,15.80
2023-04-22T07:47:10.734Z,16.00
2023-04-22T07:49:39.037Z,16.10
2023-04-22T07:52:07.311Z,16.10
2023-04-22T07:54:35.443Z,16.10
2023-04-22T07:57:03.648Z,16.20
2023-04-22T07:59:31.810Z,16.30
2023-04-22T08:02:01.307Z,16.40
2023-04-22T08:04:29.750Z,16.50
2023-04-22T08:06:58.006Z,16.60
2023-04-22T08:09:26.159Z,16.60
2023-04-22T08:11:54.589Z,16.80
2023-04-22T08:14:22.688Z,16.80
2023-04-22T08:16:52.845Z,16.90
2023-04-22T08:19:23.888Z,17.00
2023-04-22T08:21:51.967Z,17.10
2023-04-22T08:24:20.289Z,17.10
2023-04-22T08:26:48.519Z,17.20
2023-04-22T08:29:16.885Z,17.20
2023-04-22T08:31:45.287Z,17.30
2023-04-22T08:34:13.445Z,17.40
2023-04-22T08:36:43.261Z,17.40
2023-04-22T08:39:12.473Z,17.60
2023-04-22T08:41:41.197Z,17.60
2023-04-22T08:44:11.267Z,17.70
2023-04-22T08:46:41.701Z,17.80
2023-04-22T08:49:10.420Z,18.00
2023-04-22T08:51:39.403Z,18.10
2023-04-22T08:54:09.622Z,18.30
2023-04-22T08:56:42.832Z,18.40
2023-04-22T08:59:12.131Z,18.50
2023-04-22T09:01:42.254Z,18.50
2023-04-22T09:04:12.093Z,18.60
2023-04-22T09:06:41.352Z,18.70
2023-04-22T09:09:10.884Z,18.70
2023-04-22T09:11:39.446Z,18.80
2023-04-22T09:14:07.832Z,18.90
2023-04-22T09:16:43.313Z,19.00
2023-04-22T09:19:13.932Z,19.10
2023-04-22T09:21:42.828Z,19.10
2023-04-22T09:24:13.447Z,19.10
2023-04-22T09:26:43.305Z,19.00
2023-04-22T09:29:16.509Z,19.10
2023-04-22T09:31:50.573Z,19.20
2023-04-22T09:34:18.698Z,19.30
2023-04-22T09:36:47.091Z,19.40
2023-04-22T09:43:20.743Z,19.50
2023-04-22T09:45:48.939Z,19.50
2023-04-22T09:48:20.653Z,19.50
2023-04-22T09:50:52.318Z,19.60
2023-04-22T09:53:22.857Z,19.50
2023-04-22T09:55:55.634Z,19.40
2023-04-22T09:58:27.487Z,19.40
2023-04-22T10:00:57.752Z,19.40
2023-04-22T10:03:25.998Z,19.40
2023-04-22T10:05:54.122Z,19.60
2023-04-22T10:08:22.371Z,19.70
2023-04-22T10:10:50.979Z,19.70
2023-04-22T10:13:19.382Z,19.80
2023-04-22T10:15:53.685Z,19.70
2023-04-22T10:18:25.464Z,19.80
2023-04-22T10:20:57.412Z,19.90
2023-04-22T10:23:26.710Z,20.00
2023-04-22T10:25:57.502Z,20.30
2023-04-22T10:28:30.729Z,20.30
2023-04-22T10:31:00.574Z,20.50
2023-04-22T10:33:42.351Z,20.60
2023-04-22T10:36:17.050Z,20.70
2023-04-22T10:39:22.090Z,20.80
2023-04-22T10:41:56.261Z,20.80
2023-04-22T10:44:30.065Z,20.90
2023-04-22T10:47:01.812Z,20.90
2023-04-22T10:49:34.740Z,20.90
2023-04-22T10:52:04.937Z,21.00
2023-04-22T10:55:00.179Z,21.00
2023-04-22T10:57:40.187Z,21.00
2023-04-22T11:00:33.156Z,21.00
2023-04-22T11:03:17.920Z,20.90
2023-04-22T11:05:46.733Z,20.80
2023-04-22T11:08:21.655Z,20.90
2023-04-22T11:10:51.988Z,21.00
2023-04-22T11:13:21.632Z,21.20
2023-04-22T11:15:53.998Z,21.20
2023-04-22T11:18:27.060Z,21.30
2023-04-22T11:20:55.513Z,21.40
2023-04-22T11:23:28.146Z,21.30
2023-04-22T11:26:01.461Z,21.30
2023-04-22T11:28:30.543Z,21.50
2023-04-22T11:31:10.839Z,21.50
2023-04-22T11:33:41.849Z,21.50
2023-04-22T11:36:12.569Z,21.50
2023-04-22T11:38:40.716Z,21.50
2023-04-22T11:41:08.802Z,21.40
2023-04-22T11:43:48.156Z,21.50
2023-04-22T11:46:16.342Z,21.50
2023-04-22T11:48:45.810Z,21.40
2023-04-22T11:51:14.075Z,21.40
2023-04-22T11:53:51.976Z,21.30
2023-04-22T11:56:22.333Z,21.40
2023-04-22T11:58:50.413Z,21.40
2023-04-22T12:01:19.331Z,21.50
2023-04-22T12:03:50.240Z,21.50
2023-04-22T12:06:18.469Z,21.40
2023-04-22T12:08:47.452Z,21.40
2023-04-22T12:11:15.640Z,21.30
2023-04-22T12:13:46.732Z,21.30
2023-04-22T12:16:18.337Z,21.20
2023-04-22T12:18:52.563Z,21.30
2023-04-22T12:21:24.674Z,21.30
2023-04-22T12:23:58.938Z,21.30
2023-04-22T12:26:28.197Z,21.40
2023-04-22T12:28:58.094Z,21.50
2023-04-22T12:31:27.154Z,21.50
2023-04-22T12:33:57.097Z,21.60
2023-04-22T12:36:26.113Z,21.50
2023-04-22T12:38:54.420Z,21.60
2023-04-22T12:41:23.567Z,21.60
2023-04-22T12:43:52.497Z,21.60
2023-04-22T12:46:20.925Z,21.60
2023-04-22T12:48:49.087Z,21.70
2023-04-22T12:51:18.845Z,21.70
2023-04-22T12:53:46.919Z,21.80
2023-04-22T12:56:15.213Z,21.90
2023-04-22T12:58:43.332Z,22.00
2023-04-22T13:01:11.419Z,22.00
2023-04-22T13:03:39.580Z,21.90
2023-04-22T13:06:08.082Z,21.90
2023-04-22T13:08:37.543Z,21.90
2023-04-22T13:11:05.698Z,22.00
2023-04-22T13:13:33.744Z,22.00
2023-04-22T13:16:02.278Z,22.00
2023-04-22T13:18:30.405Z,22.00
2023-04-22T13:21:00.134Z,22.10
2023-04-22T13:23:28.219Z,22.10
2023-04-22T13:25:57.947Z,22.00
2023-04-22T13:28:26.101Z,22.00
2023-04-22T13:30:54.985Z,22.00
2023-04-22T13:33:24.381Z,22.00
2023-04-22T13:35:52.475Z,22.10
2023-04-22T13:38:20.638Z,22.00
2023-04-22T13:40:48.705Z,22.00
2023-04-22T13:43:18.405Z,21.90
2023-04-22T13:45:48.201Z,22.00
2023-04-22T13:48:16.360Z,21.90
2023-04-22T13:50:44.643Z,22.00
2023-04-22T13:53:14.103Z,22.00
2023-04-22T13:55:43.246Z,21.90
2023-04-22T13:58:11.959Z,21.90
2023-04-22T14:00:41.436Z,22.00
2023-04-22T14:03:09.737Z,22.00
2023-04-22T14:05:37.984Z,22.10
2023-04-22T14:08:06.360Z,22.10
2023-04-22T14:10:34.522Z,22.10
2023-04-22T14:13:02.693Z,22.10
2023-04-22T14:15:30.981Z,22.00
2023-04-22T14:18:00.461Z,22.00
2023-04-22T14:20:28.689Z,21.90
2023-04-22T14:22:56.993Z,21.80
2023-04-22T14:25:25.145Z,21.70
2023-04-22T14:27:53.480Z,21.70
2023-04-22T14:30:21.881Z,21.60
2023-04-22T14:32:50.655Z,21.60
2023-04-22T14:35:20.745Z,21.60
2023-04-22T14:37:49.194Z,21.60
2023-04-22T14:40:17.422Z,21.60
2023-04-22T14:42:45.513Z,21.60
2023-04-22T14:45:14.602Z,21.60
2023-04-22T14:47:42.661Z,21.70
2023-04-22T14:50:11.659Z,21.70
2023-04-22T14:52:41.465Z,21.70
2023-04-22T14:55:21.834Z,21.60
2023-04-22T14:57:56.538Z,21.60
2023-04-22T15:00:25.662Z,21.50
2023-04-22T15:02:55.910Z,21.50
2023-04-22T15:05:24.273Z,21.50
2023-04-22T15:07:53.752Z,21.60
2023-04-22T15:10:22.146Z,21.60
2023-04-22T15:12:50.418Z,21.60
2023-04-22T15:15:18.569Z,21.60
2023-04-22T15:17:47.250Z,21.60
2023-04-22T15:20:15.768Z,21.60
2023-04-22T15:22:45.554Z,21.60
2023-04-22T15:25:17.457Z,21.60
2023-04-22T15:27:46.492Z,21.60
2023-04-22T15:30:15.071Z,21.50
2023-04-22T15:32:43.215Z,21.50
2023-04-22T15:35:11.862Z,21.50
2023-04-22T15:37:40.528Z,21.40
2023-04-22T15:40:10.046Z,21.40
2023-04-22T15:42:39.503Z,21.40
2023-04-22T15:45:09.069Z,21.40
2023-04-22T15:47:37.418Z,21.30
2023-04-22T15:50:08.698Z,21.20
2023-04-22T15:52:38.432Z,21.20
2023-04-22T15:55:07.492Z,21.10
2023-04-22T15:57:35.825Z,21.10
2023-04-22T16:00:12.318Z,21.00
2023-04-22T16:02:43.178Z,21.00
2023-04-22T16:05:13.862Z,20.90
2023-04-22T16:07:41.886Z,20.80
2023-04-22T16:10:11.877Z,20.80
2023-04-22T16:12:39.936Z,20.70
2023-04-22T16:15:12.022Z,20.60
2023-04-22T16:17:40.269Z,20.50
2023-04-22T16:20:10.934Z,20.50
2023-04-22T16:22:39.120Z,20.40
2023-04-22T16:25:09.566Z,20.40
2023-04-22T16:27:37.632Z,20.40
2023-04-22T16:30:07.284Z,20.30
2023-04-22T16:32:37.113Z,20.30
2023-04-22T16:35:06.003Z,20.30
2023-04-22T16:37:35.023Z,20.20
2023-04-22T16:40:04.249Z,20.20
2023-04-22T16:42:32.355Z,20.20
2023-04-22T16:45:01.049Z,20.20
2023-04-22T16:47:29.123Z,20.20
2023-04-22T16:49:58.671Z,20.20
2023-04-22T16:52:26.692Z,20.10
2023-04-22T16:54:54.742Z,20.10
2023-04-22T16:57:22.844Z,20.00
2023-04-22T16:59:51.237Z,20.00
2023-04-22T17:02:19.593Z,20.00
2023-04-22T17:04:47.762Z,20.00
2023-04-22T17:07:17.199Z,20.00
2023-04-22T17:09:45.492Z,19.90
2023-04-22T17:12:13.579Z,19.90
2023-04-22T17:14:41.668Z,19.90
2023-04-22T17:17:09.888Z,19.90
2023-04-22T17:19:38.157Z,19.90
2023-04-22T17:22:06.723Z,19.80
2023-04-22T17:24:36.494Z,19.80
2023-04-22T17:27:04.859Z,19.80
2023-04-22T17:29:32.924Z,19.80
2023-04-22T17:32:00.966Z,19.70
2023-04-22T17:34:29.082Z,19.70
2023-04-22T17:36:57.219Z,19.60
2023-04-22T17:39:25.302Z,19.50
2023-04-22T17:41:54.807Z,19.50
2023-04-22T17:44:22.832Z,19.40
2023-04-22T17:46:51.003Z,19.30
2023-04-22T17:49:19.142Z,19.20
2023-04-22T17:51:47.298Z,19.10
2023-04-22T17:54:15.505Z,19.00
2023-04-22T17:56:43.569Z,18.80
2023-04-22T17:59:13.038Z,18.80
2023-04-22T18:01:41.281Z,18.70
2023-04-22T18:04:09.445Z,18.60
2023-04-22T18:06:37.885Z,18.50
2023-04-22T18:09:06.347Z,18.40
2023-04-22T18:11:34.433Z,18.30
2023-04-22T18:14:02.683Z,18.20
2023-04-22T18:16:32.358Z,18.10
2023-04-22T18:19:02.150Z,18.00
2023-04-22T18:21:31.349Z,17.80
2023-04-22T18:23:59.465Z,17.70
2023-04-22T18:26:27.639Z,17.70
2023-04-22T18:28:55.770Z,17.60
2023-04-22T18:31:23.992Z,17.60
2023-04-22T18:33:53.857Z,17.50
2023-04-22T18:36:22.377Z,17.40
2023-04-22T18:38:50.445Z,17.30
2023-04-22T18:41:18.580Z,17.10
2023-04-22T18:43:50.129Z,17.00
2023-04-22T18:46:18.267Z,17.00
2023-04-22T18:48:46.349Z,17.00
2023-04-22T18:51:15.839Z,16.90
2023-04-22T18:53:44.630Z,16.90
2023-04-22T18:56:13.301Z,16.90
2023-04-22T18:58:41.371Z,16.90
2023-04-22T19:01:09.475Z,16.80
2023-04-22T19:03:38.014Z,16.80
2023-04-22T19:06:06.861Z,16.70
2023-04-22T19:08:36.432Z,16.70
2023-04-22T19:11:04.563Z,16.60
2023-04-22T19:13:32.681Z,16.60
2023-04-22T19:16:00.931Z,16.50
2023-04-22T19:18:29.061Z,16.50
2023-04-22T19:20:57.214Z,16.50
2023-04-22T19:23:25.401Z,16.40
2023-04-22T19:25:54.760Z,16.40
2023-04-22T19:28:22.829Z,16.30
2023-04-22T19:30:51.674Z,16.20
2023-04-22T19:33:19.868Z,16.20
2023-04-22T19:35:48.192Z,16.10
2023-04-22T19:38:19.014Z,16.00
2023-04-22T19:40:47.258Z,15.90
2023-04-22T19:43:18.941Z,15.80
2023-04-22T19:45:47.215Z,15.80
2023-04-22T19:48:16.323Z,15.70
2023-04-22T19:50:45.662Z,15.70
2023-04-22T19:53:14.961Z,15.70
2023-04-22T19:55:45.054Z,15.80
2023-04-22T19:58:14.549Z,15.80
2023-04-22T20:00:46.462Z,15.80
2023-04-22T20:03:16.048Z,15.80
2023-04-22T20:05:45.366Z,15.80
2023-04-22T20:08:15.748Z,15.80
2023-04-22T20:10:47.941Z,15.80
2023-04-22T20:13:16.736Z,15.70
2023-04-22T20:15:46.686Z,15.80
2023-04-22T20:18:15.285Z,15.70
2023-04-22T20:20:45.918Z,15.70
2023-04-22T20:23:16.065Z,15.60
2023-04-22T20:25:45.590Z,15.60
2023-04-22T20:28:14.083Z,15.60
2023-04-22T20:30:42.926Z,15.70
2023-04-22T20:33:15.882Z,15.70
2023-04-22T20:35:46.051Z,15.70
2023-04-22T20:38:15.101Z,15.80
2023-04-22T20:40:46.062Z,15.80
2023-04-22T20:43:14.501Z,15.90
2023-04-22T20:45:43.151Z,15.90
2023-04-22T20:48:12.834Z,15.90
2023-04-22T20:50:40.950Z,15.90
2023-04-22T20:53:09.140Z,16.00
2023-04-22T20:55:37.412Z,16.10
2023-04-22T20:58:05.663Z,16.20
2023-04-22T21:00:34.092Z,16.30
2023-04-22T21:03:04.061Z,16.30
2023-04-22T21:05:40.662Z,16.40
2023-04-22T21:08:22.725Z,16.50
2023-04-22T21:10:52.774Z,16.60
2023-04-22T21:13:21.639Z,16.60
2023-04-22T21:15:58.845Z,16.70
2023-04-22T21:18:29.519Z,16.60
2023-04-22T21:20:59.780Z,16.50
2023-04-22T21:23:28.308Z,16.50
2023-04-22T21:25:58.184Z,16.40
2023-04-22T21:28:27.526Z,16.40
2023-04-22T21:30:56.651Z,16.30
2023-04-22T21:33:25.079Z,16.20
2023-04-22T21:35:53.407Z,16.10
2023-04-22T21:38:22.954Z,16.10
2023-04-22T21:40:51.037Z,16.00
2023-04-22T21:43:19.134Z,15.90
2023-04-22T21:45:47.247Z,16.00
2023-04-22T21:48:15.314Z,15.90
2023-04-22T21:50:43.453Z,15.90
2023-04-22T21:53:12.927Z,15.80
2023-04-22T21:55:42.380Z,15.80
2023-04-22T21:58:10.549Z,15.80
2023-04-22T22:00:38.830Z,15.70
2023-04-22T22:03:07.128Z,15.70
2023-04-22T22:05:35.969Z,15.70
2023-04-22T22:08:04.212Z,15.60
2023-04-22T22:10:32.386Z,15.60
2023-04-22T22:13:01.801Z,15.60
2023-04-22T22:15:30.370Z,15.60
2023-04-22T22:17:58.832Z,15.60
2023-04-22T22:20:27.191Z,15.60
2023-04-22T22:22:55.245Z,15.60
2023-04-22T22:25:23.431Z,15.50
2023-04-22T22:27:51.625Z,15.60
2023-04-22T22:30:22.310Z,15.50
2023-04-22T22:32:50.587Z,15.50
2023-04-22T22:35:18.964Z,15.50
2023-04-22T22:37:47.079Z,15.50
2023-04-22T22:40:15.199Z,15.50
2023-04-22T22:42:43.430Z,15.40
2023-04-22T22:45:12.905Z,15.40
2023-04-22T22:47:42.532Z,15.30
2023-04-22T22:50:11.416Z,15.20
2023-04-22T22:52:39.955Z,15.20
2023-04-22T22:55:09.074Z,15.20
2023-04-22T22:57:37.156Z,15.10
2023-04-22T23:00:07.431Z,15.10
2023-04-22T23:02:35.706Z,15.10
2023-04-22T23:05:07.228Z,15.00
2023-04-22T23:07:35.976Z,15.00
2023-04-22T23:10:04.728Z,14.90
2023-04-22T23:12:34.011Z,14.80
2023-04-22T23:15:02.153Z,14.80
2023-04-22T23:17:30.362Z,14.70
2023-04-22T23:19:58.941Z,14.70
2023-04-22T23:22:29.797Z,14.70
2023-04-22T23:24:58.691Z,14.60
2023-04-22T23:27:28.740Z,14.60
2023-04-22T23:29:57.833Z,14.60
2023-04-22T23:32:28.134Z,14.60
2023-04-22T23:35:00.946Z,14.60
2023-04-22T23:37:31.920Z,14.60
2023-04-22T23:40:00.213Z,14.60
2023-04-22T23:42:28.277Z,14.50
2023-04-22T23:44:56.372Z,14.50
2023-04-22T23:47:24.570Z,14.60
2023-04-22T23:49:52.816Z,14.50
2023-04-22T23:52:20.921Z,14.50
2023-04-22T23:54:52.827Z,14.60
2023-04-22T23:57:21.729Z,14.60
2023-04-22T23:59:50.771Z,14.60
